sensor_id;sensor_type;location;lat;lon;timestamp;pressure;altitude;pressure_sealevel;temperature;humidity
79671;BME280;69137;50.878;8.050;2023-06-10T00:01:24;98199.41;;;16.75;65.52
79671;BME280;69137;50.878;8.050;2023-06-10T00:03:51;98211.31;;;16.62;65.72
79671;BME280;69137;50.878;8.050;2023-06-10T00:06:17;98206.25;;;16.55;66.08
79671;BME280;69137;50.878;8.050;2023-06-10T00:08:42;98202.75;;;16.50;66.59
79671;BME280;69137;50.878;8.050;2023-06-10T00:11:08;98205.09;;;16.56;66.19
79671;BME280;69137;50.878;8.050;2023-06-10T00:13:33;98198.44;;;16.57;66.27
79671;BME280;69137;50.878;8.050;2023-06-10T00:15:59;98209.28;;;16.54;66.00
79671;BME280;69137;50.878;8.050;2023-06-10T00:18:24;98194.69;;;16.53;66.44
79671;BME280;69137;50.878;8.050;2023-06-10T00:20:52;98196.19;;;16.59;65.87
79671;BME280;69137;50.878;8.050;2023-06-10T00:23:18;98209.38;;;16.63;65.66
79671;BME280;69137;50.878;8.050;2023-06-10T00:25:43;98203.59;;;16.50;66.07
79671;BME280;69137;50.878;8.050;2023-06-10T00:28:09;98201.31;;;16.52;66.00
79671;BME280;69137;50.878;8.050;2023-06-10T00:30:34;98188.25;;;16.58;65.87
79671;BME280;69137;50.878;8.050;2023-06-10T00:33:00;98199.50;;;16.48;66.18
79671;BME280;69137;50.878;8.050;2023-06-10T00:35:25;98199.13;;;16.41;66.27
79671;BME280;69137;50.878;8.050;2023-06-10T00:37:50;98198.63;;;16.25;66.94
79671;BME280;69137;50.878;8.050;2023-06-10T00:40:16;98197.59;;;16.21;66.92
79671;BME280;69137;50.878;8.050;2023-06-10T00:42:41;98207.19;;;16.23;66.82
79671;BME280;69137;50.878;8.050;2023-06-10T00:45:07;98205.97;;;16.15;67.23
79671;BME280;69137;50.878;8.050;2023-06-10T00:47:33;98208.94;;;16.19;66.99
79671;BME280;69137;50.878;8.050;2023-06-10T00:50:00;98198.63;;;16.25;66.78
79671;BME280;69137;50.878;8.050;2023-06-10T00:52:28;98203.72;;;16.17;67.40
79671;BME280;69137;50.878;8.050;2023-06-10T00:54:54;98203.75;;;16.04;67.74
79671;BME280;69137;50.878;8.050;2023-06-10T00:57:20;98207.41;;;15.99;67.60
79671;BME280;69137;50.878;8.050;2023-06-10T00:59:48;98204.03;;;16.02;67.91
79671;BME280;69137;50.878;8.050;2023-06-10T01:02:14;98208.94;;;16.05;67.19
79671;BME280;69137;50.878;8.050;2023-06-10T01:04:40;98201.28;;;16.02;67.66
79671;BME280;69137;50.878;8.050;2023-06-10T01:07:09;98201.72;;;15.96;67.60
79671;BME280;69137;50.878;8.050;2023-06-10T01:10:05;98205.16;;;16.01;67.00
79671;BME280;69137;50.878;8.050;2023-06-10T01:12:41;98205.78;;;15.98;66.91
79671;BME280;69137;50.878;8.050;2023-06-10T01:15:14;98207.00;;;15.92;67.66
79671;BME280;69137;50.878;8.050;2023-06-10T01:18:01;98205.66;;;15.76;67.89
79671;BME280;69137;50.878;8.050;2023-06-10T01:20:31;98208.31;;;15.81;68.28
79671;BME280;69137;50.878;8.050;2023-06-10T01:23:00;98208.84;;;15.83;68.03
79671;BME280;69137;50.878;8.050;2023-06-10T01:25:27;98204.34;;;15.73;68.29
79671;BME280;69137;50.878;8.050;2023-06-10T01:31:19;98210.97;;;15.72;68.22
79671;BME280;69137;50.878;8.050;2023-06-10T01:33:50;98204.63;;;15.71;68.18
79671;BME280;69137;50.878;8.050;2023-06-10T01:36:17;98207.59;;;15.75;67.99
79671;BME280;69137;50.878;8.050;2023-06-10T01:38:45;98212.41;;;15.69;68.15
79671;BME280;69137;50.878;8.050;2023-06-10T01:41:12;98214.09;;;15.65;68.51
79671;BME280;69137;50.878;8.050;2023-06-10T01:43:38;98215.88;;;15.56;68.89
79671;BME280;69137;50.878;8.050;2023-06-10T01:46:04;98205.41;;;15.58;69.00
79671;BME280;69137;50.878;8.050;2023-06-10T01:48:31;98214.00;;;15.38;69.64
79671;BME280;69137;50.878;8.050;2023-06-10T01:50:56;98217.88;;;15.23;69.99
79671;BME280;69137;50.878;8.050;2023-06-10T01:53:22;98210.53;;;15.32;69.48
79671;BME280;69137;50.878;8.050;2023-06-10T01:55:48;98209.22;;;15.29;69.60
79671;BME280;69137;50.878;8.050;2023-06-10T01:58:13;98209.13;;;15.35;69.67
79671;BME280;69137;50.878;8.050;2023-06-10T02:00:39;98216.81;;;15.19;69.94
79671;BME280;69137;50.878;8.050;2023-06-10T02:03:04;98212.53;;;15.13;70.56
79671;BME280;69137;50.878;8.050;2023-06-10T02:05:30;98205.53;;;15.20;69.95
79671;BME280;69137;50.878;8.050;2023-06-10T02:07:55;98211.13;;;15.15;70.07
79671;BME280;69137;50.878;8.050;2023-06-10T02:10:21;98212.28;;;15.09;70.28
79671;BME280;69137;50.878;8.050;2023-06-10T02:12:46;98214.16;;;15.14;70.17
79671;BME280;69137;50.878;8.050;2023-06-10T02:15:11;98212.16;;;15.00;70.51
79671;BME280;69137;50.878;8.050;2023-06-10T02:17:37;98204.75;;;14.82;71.41
79671;BME280;69137;50.878;8.050;2023-06-10T02:20:03;98211.22;;;14.72;71.34
79671;BME280;69137;50.878;8.050;2023-06-10T02:22:31;98205.34;;;14.79;71.34
79671;BME280;69137;50.878;8.050;2023-06-10T02:24:57;98215.22;;;14.80;71.29
79671;BME280;69137;50.878;8.050;2023-06-10T02:27:22;98208.31;;;14.82;70.81
79671;BME280;69137;50.878;8.050;2023-06-10T02:29:47;98207.66;;;14.72;71.36
79671;BME280;69137;50.878;8.050;2023-06-10T02:32:13;98207.81;;;14.61;72.00
79671;BME280;69137;50.878;8.050;2023-06-10T02:34:38;98210.16;;;14.68;71.72
79671;BME280;69137;50.878;8.050;2023-06-10T02:37:04;98210.25;;;14.63;71.51
79671;BME280;69137;50.878;8.050;2023-06-10T02:39:30;98214.25;;;14.71;71.47
79671;BME280;69137;50.878;8.050;2023-06-10T02:41:55;98214.94;;;14.62;71.66
79671;BME280;69137;50.878;8.050;2023-06-10T02:44:21;98217.38;;;14.64;71.68
79671;BME280;69137;50.878;8.050;2023-06-10T02:46:46;98217.38;;;14.64;71.35
79671;BME280;69137;50.878;8.050;2023-06-10T02:49:12;98218.19;;;14.64;70.95
79671;BME280;69137;50.878;8.050;2023-06-10T02:51:38;98212.69;;;14.64;71.07
79671;BME280;69137;50.878;8.050;2023-06-10T02:54:04;98216.88;;;14.62;71.17
79671;BME280;69137;50.878;8.050;2023-06-10T02:56:30;98216.34;;;14.60;71.04
79671;BME280;69137;50.878;8.050;2023-06-10T02:58:57;98209.50;;;14.57;71.16
79671;BME280;69137;50.878;8.050;2023-06-10T03:01:22;98219.41;;;14.58;71.32
79671;BME280;69137;50.878;8.050;2023-06-10T03:03:47;98208.41;;;14.58;71.22
79671;BME280;69137;50.878;8.050;2023-06-10T03:06:13;98219.78;;;14.47;71.27
79671;BME280;69137;50.878;8.050;2023-06-10T03:08:42;98214.16;;;14.38;71.88
79671;BME280;69137;50.878;8.050;2023-06-10T03:11:08;98206.31;;;14.26;71.85
79671;BME280;69137;50.878;8.050;2023-06-10T03:13:33;98215.97;;;14.24;72.29
79671;BME280;69137;50.878;8.050;2023-06-10T03:15:59;98206.56;;;14.30;72.11
79671;BME280;69137;50.878;8.050;2023-06-10T03:18:27;98216.56;;;14.20;72.45
79671;BME280;69137;50.878;8.050;2023-06-10T03:20:54;98216.22;;;14.27;71.97
79671;BME280;69137;50.878;8.050;2023-06-10T03:23:20;98219.53;;;14.24;72.00
79671;BME280;69137;50.878;8.050;2023-06-10T03:25:46;98219.97;;;14.12;72.37
79671;BME280;69137;50.878;8.050;2023-06-10T03:28:11;98217.00;;;14.09;72.69
79671;BME280;69137;50.878;8.050;2023-06-10T03:30:37;98217.22;;;14.12;72.74
79671;BME280;69137;50.878;8.050;2023-06-10T03:33:02;98219.81;;;14.04;73.02
79671;BME280;69137;50.878;8.050;2023-06-10T03:35:28;98227.03;;;13.94;73.18
79671;BME280;69137;50.878;8.050;2023-06-10T03:37:53;98226.88;;;13.86;73.54
79671;BME280;69137;50.878;8.050;2023-06-10T03:40:18;98227.03;;;13.94;72.96
79671;BME280;69137;50.878;8.050;2023-06-10T03:42:44;98228.50;;;13.87;73.15
79671;BME280;69137;50.878;8.050;2023-06-10T03:45:10;98229.94;;;13.79;73.95
79671;BME280;69137;50.878;8.050;2023-06-10T03:47:37;98230.75;;;13.80;74.35
79671;BME280;69137;50.878;8.050;2023-06-10T03:50:06;98231.25;;;13.87;74.25
79671;BME280;69137;50.878;8.050;2023-06-10T03:52:32;98227.63;;;13.91;74.01
79671;BME280;69137;50.878;8.050;2023-06-10T03:54:57;98232.94;;;14.07;73.35
79671;BME280;69137;50.878;8.050;2023-06-10T03:57:22;98231.22;;;14.11;73.49
79671;BME280;69137;50.878;8.050;2023-06-10T03:59:48;98231.75;;;14.13;73.42
79671;BME280;69137;50.878;8.050;2023-06-10T04:02:13;98227.97;;;14.09;72.89
79671;BME280;69137;50.878;8.050;2023-06-10T04:04:39;98236.66;;;14.16;72.91
79671;BME280;69137;50.878;8.050;2023-06-10T04:07:05;98233.53;;;14.04;73.26
79671;BME280;69137;50.878;8.050;2023-06-10T04:09:30;98239.41;;;14.16;73.01
79671;BME280;69137;50.878;8.050;2023-06-10T04:11:56;98227.63;;;14.15;72.76
79671;BME280;69137;50.878;8.050;2023-06-10T04:14:21;98242.41;;;14.19;72.83
79671;BME280;69137;50.878;8.050;2023-06-10T04:16:47;98242.56;;;14.28;72.55
79671;BME280;69137;50.878;8.050;2023-06-10T04:19:12;98238.47;;;14.26;72.78
79671;BME280;69137;50.878;8.050;2023-06-10T04:21:37;98233.44;;;14.33;72.36
79671;BME280;69137;50.878;8.050;2023-06-10T04:24:03;98237.53;;;14.35;72.25
79671;BME280;69137;50.878;8.050;2023-06-10T04:26:29;98238.94;;;14.33;72.88
79671;BME280;69137;50.878;8.050;2023-06-10T04:28:54;98241.09;;;14.36;72.29
79671;BME280;69137;50.878;8.050;2023-06-10T04:31:19;98241.69;;;14.33;72.69
79671;BME280;69137;50.878;8.050;2023-06-10T04:33:45;98249.25;;;14.22;73.15
79671;BME280;69137;50.878;8.050;2023-06-10T04:36:11;98246.56;;;14.17;73.36
79671;BME280;69137;50.878;8.050;2023-06-10T04:38:36;98253.69;;;14.18;73.42
79671;BME280;69137;50.878;8.050;2023-06-10T04:41:02;98256.09;;;14.25;72.86
79671;BME280;69137;50.878;8.050;2023-06-10T04:43:28;98262.97;;;14.22;72.72
79671;BME280;69137;50.878;8.050;2023-06-10T04:45:54;98255.84;;;14.21;73.45
79671;BME280;69137;50.878;8.050;2023-06-10T04:48:20;98265.34;;;14.29;72.65
79671;BME280;69137;50.878;8.050;2023-06-10T04:50:45;98255.78;;;14.26;73.49
79671;BME280;69137;50.878;8.050;2023-06-10T04:53:11;98260.41;;;14.31;72.40
79671;BME280;69137;50.878;8.050;2023-06-10T04:55:36;98260.56;;;14.39;72.73
79671;BME280;69137;50.878;8.050;2023-06-10T04:58:01;98257.66;;;14.31;71.83
79671;BME280;69137;50.878;8.050;2023-06-10T05:00:27;98258.41;;;14.36;71.97
79671;BME280;69137;50.878;8.050;2023-06-10T05:02:52;98261.09;;;14.41;72.42
79671;BME280;69137;50.878;8.050;2023-06-10T05:05:18;98255.78;;;14.50;71.89
79671;BME280;69137;50.878;8.050;2023-06-10T05:07:44;98262.88;;;14.75;70.64
79671;BME280;69137;50.878;8.050;2023-06-10T05:10:10;98251.78;;;14.80;70.09
79671;BME280;69137;50.878;8.050;2023-06-10T05:12:38;98257.66;;;14.93;70.42
79671;BME280;69137;50.878;8.050;2023-06-10T05:15:05;98255.56;;;15.03;70.23
79671;BME280;69137;50.878;8.050;2023-06-10T05:17:30;98259.88;;;15.10;68.99
79671;BME280;69137;50.878;8.050;2023-06-10T05:19:56;98258.31;;;15.22;68.88
79671;BME280;69137;50.878;8.050;2023-06-10T05:22:21;98263.97;;;15.31;71.11
79671;BME280;69137;50.878;8.050;2023-06-10T05:24:49;98253.56;;;15.28;70.73
79671;BME280;69137;50.878;8.050;2023-06-10T05:27:14;98263.88;;;15.36;70.85
79671;BME280;69137;50.878;8.050;2023-06-10T05:29:40;98262.94;;;15.41;70.94
79671;BME280;69137;50.878;8.050;2023-06-10T05:32:06;98261.38;;;15.54;71.54
79671;BME280;69137;50.878;8.050;2023-06-10T05:34:31;98257.63;;;15.63;70.95
79671;BME280;69137;50.878;8.050;2023-06-10T05:36:57;98265.94;;;15.77;69.44
79671;BME280;69137;50.878;8.050;2023-06-10T05:39:23;98267.81;;;15.96;69.79
79671;BME280;69137;50.878;8.050;2023-06-10T05:41:48;98258.22;;;16.21;69.15
79671;BME280;69137;50.878;8.050;2023-06-10T05:44:14;98264.38;;;16.45;68.80
79671;BME280;69137;50.878;8.050;2023-06-10T05:46:39;98259.75;;;16.68;68.44
79671;BME280;69137;50.878;8.050;2023-06-10T05:49:04;98263.00;;;16.84;67.27
79671;BME280;69137;50.878;8.050;2023-06-10T05:51:30;98252.59;;;17.03;67.83
79671;BME280;69137;50.878;8.050;2023-06-10T05:53:57;98261.44;;;17.28;67.08
79671;BME280;69137;50.878;8.050;2023-06-10T05:56:22;98261.47;;;17.59;67.01
79671;BME280;69137;50.878;8.050;2023-06-10T05:58:48;98262.91;;;17.79;66.25
79671;BME280;69137;50.878;8.050;2023-06-10T06:01:14;98262.06;;;18.01;66.03
79671;BME280;69137;50.878;8.050;2023-06-10T06:03:40;98261.31;;;18.18;65.77
79671;BME280;69137;50.878;8.050;2023-06-10T06:06:06;98257.31;;;18.42;65.61
79671;BME280;69137;50.878;8.050;2023-06-10T06:08:31;98256.25;;;18.69;63.80
79671;BME280;69137;50.878;8.050;2023-06-10T06:10:57;98261.22;;;18.89;64.10
79671;BME280;69137;50.878;8.050;2023-06-10T06:13:22;98256.16;;;19.09;64.29
79671;BME280;69137;50.878;8.050;2023-06-10T06:15:48;98252.91;;;19.24;61.57
79671;BME280;69137;50.878;8.050;2023-06-10T06:18:13;98249.31;;;19.41;62.39
79671;BME280;69137;50.878;8.050;2023-06-10T06:20:38;98254.31;;;19.65;61.18
79671;BME280;69137;50.878;8.050;2023-06-10T06:23:04;98246.09;;;19.95;60.56
79671;BME280;69137;50.878;8.050;2023-06-10T06:25:29;98245.72;;;20.14;57.51
79671;BME280;69137;50.878;8.050;2023-06-10T06:27:55;98257.25;;;20.24;57.20
79671;BME280;69137;50.878;8.050;2023-06-10T06:30:20;98249.97;;;20.49;54.15
79671;BME280;69137;50.878;8.050;2023-06-10T06:32:45;98259.47;;;20.78;53.69
79671;BME280;69137;50.878;8.050;2023-06-10T06:35:11;98264.81;;;21.04;50.86
79671;BME280;69137;50.878;8.050;2023-06-10T06:37:37;98259.38;;;21.29;52.10
79671;BME280;69137;50.878;8.050;2023-06-10T06:40:02;98253.03;;;21.49;50.63
79671;BME280;69137;50.878;8.050;2023-06-10T06:42:29;98263.56;;;21.77;48.95
79671;BME280;69137;50.878;8.050;2023-06-10T06:44:54;98258.25;;;21.96;47.98
79671;BME280;69137;50.878;8.050;2023-06-10T06:47:20;98262.97;;;22.29;46.98
79671;BME280;69137;50.878;8.050;2023-06-10T06:49:48;98252.78;;;22.58;45.53
79671;BME280;69137;50.878;8.050;2023-06-10T06:52:17;98266.56;;;22.66;44.63
79671;BME280;69137;50.878;8.050;2023-06-10T06:54:42;98264.81;;;22.74;45.29
79671;BME280;69137;50.878;8.050;2023-06-10T06:57:08;98261.06;;;22.95;44.88
79671;BME280;69137;50.878;8.050;2023-06-10T06:59:33;98270.66;;;23.22;44.02
79671;BME280;69137;50.878;8.050;2023-06-10T07:01:59;98275.88;;;23.36;43.28
79671;BME280;69137;50.878;8.050;2023-06-10T07:04:25;98267.84;;;23.34;43.16
79671;BME280;69137;50.878;8.050;2023-06-10T07:06:50;98265.22;;;23.25;43.61
79671;BME280;69137;50.878;8.050;2023-06-10T07:09:16;98270.41;;;23.27;43.43
79671;BME280;69137;50.878;8.050;2023-06-10T07:11:42;98273.53;;;23.66;43.63
79671;BME280;69137;50.878;8.050;2023-06-10T07:14:07;98278.56;;;23.88;42.24
79671;BME280;69137;50.878;8.050;2023-06-10T07:16:34;98273.09;;;23.92;41.34
79671;BME280;69137;50.878;8.050;2023-06-10T07:18:59;98278.97;;;24.03;41.86
79671;BME280;69137;50.878;8.050;2023-06-10T07:21:24;98270.41;;;24.27;41.77
79671;BME280;69137;50.878;8.050;2023-06-10T07:23:50;98286.16;;;24.35;41.46
79671;BME280;69137;50.878;8.050;2023-06-10T07:26:18;98277.47;;;24.53;40.78
79671;BME280;69137;50.878;8.050;2023-06-10T07:28:44;98282.13;;;24.49;41.57
79671;BME280;69137;50.878;8.050;2023-06-10T07:31:10;98272.50;;;24.46;40.84
79671;BME280;69137;50.878;8.050;2023-06-10T07:33:37;98285.81;;;24.37;41.45
79671;BME280;69137;50.878;8.050;2023-06-10T07:36:04;98280.53;;;24.48;41.71
79671;BME280;69137;50.878;8.050;2023-06-10T07:38:30;98283.13;;;24.56;40.89
79671;BME280;69137;50.878;8.050;2023-06-10T07:40:55;98281.41;;;24.68;42.45
79671;BME280;69137;50.878;8.050;2023-06-10T07:43:21;98273.28;;;24.78;40.30
79671;BME280;69137;50.878;8.050;2023-06-10T07:45:46;98275.25;;;25.13;40.46
79671;BME280;69137;50.878;8.050;2023-06-10T07:48:11;98276.72;;;25.23;38.84
79671;BME280;69137;50.878;8.050;2023-06-10T07:50:37;98276.66;;;25.19;39.47
79671;BME280;69137;50.878;8.050;2023-06-10T07:53:02;98282.47;;;25.30;39.30
79671;BME280;69137;50.878;8.050;2023-06-10T07:55:28;98280.16;;;25.55;37.92
79671;BME280;69137;50.878;8.050;2023-06-10T07:57:54;98290.09;;;25.72;37.20
79671;BME280;69137;50.878;8.050;2023-06-10T08:00:20;98297.69;;;25.91;37.22
79671;BME280;69137;50.878;8.050;2023-06-10T08:02:46;98286.78;;;26.05;36.99
79671;BME280;69137;50.878;8.050;2023-06-10T08:05:12;98292.81;;;26.07;36.74
79671;BME280;69137;50.878;8.050;2023-06-10T08:07:37;98285.53;;;26.03;36.63
79671;BME280;69137;50.878;8.050;2023-06-10T08:10:04;98287.16;;;26.04;36.20
79671;BME280;69137;50.878;8.050;2023-06-10T08:12:30;98293.53;;;26.04;37.15
79671;BME280;69137;50.878;8.050;2023-06-10T08:14:56;98284.34;;;26.50;36.49
79671;BME280;69137;50.878;8.050;2023-06-10T08:17:21;98292.28;;;26.67;35.46
79671;BME280;69137;50.878;8.050;2023-06-10T08:19:47;98290.63;;;26.89;35.76
79671;BME280;69137;50.878;8.050;2023-06-10T08:22:12;98286.78;;;26.74;35.24
79671;BME280;69137;50.878;8.050;2023-06-10T08:24:38;98277.44;;;26.67;35.52
79671;BME280;69137;50.878;8.050;2023-06-10T08:27:04;98280.84;;;26.53;36.26
79671;BME280;69137;50.878;8.050;2023-06-10T08:29:31;98289.16;;;26.49;36.04
79671;BME280;69137;50.878;8.050;2023-06-10T08:31:57;98274.66;;;26.93;34.93
79671;BME280;69137;50.878;8.050;2023-06-10T08:34:23;98285.09;;;27.19;34.41
79671;BME280;69137;50.878;8.050;2023-06-10T08:36:48;98283.22;;;27.31;34.05
79671;BME280;69137;50.878;8.050;2023-06-10T08:39:18;98281.53;;;27.53;33.97
79671;BME280;69137;50.878;8.050;2023-06-10T08:41:56;98277.84;;;27.18;33.78
79671;BME280;69137;50.878;8.050;2023-06-10T08:44:29;98280.44;;;27.34;34.80
79671;BME280;69137;50.878;8.050;2023-06-10T08:47:06;98275.50;;;27.54;33.60
79671;BME280;69137;50.878;8.050;2023-06-10T08:49:34;98284.75;;;27.88;32.97
79671;BME280;69137;50.878;8.050;2023-06-10T08:52:04;98280.31;;;27.84;32.32
79671;BME280;69137;50.878;8.050;2023-06-10T08:54:33;98279.47;;;27.83;32.35
79671;BME280;69137;50.878;8.050;2023-06-10T08:57:04;98280.56;;;27.41;32.87
79671;BME280;69137;50.878;8.050;2023-06-10T08:59:31;98272.81;;;27.05;33.98
79671;BME280;69137;50.878;8.050;2023-06-10T09:01:57;98272.03;;;27.34;34.50
79671;BME280;69137;50.878;8.050;2023-06-10T09:04:24;98276.50;;;27.69;33.94
79671;BME280;69137;50.878;8.050;2023-06-10T09:06:50;98272.47;;;28.04;32.47
79671;BME280;69137;50.878;8.050;2023-06-10T09:09:16;98278.78;;;28.31;31.22
79671;BME280;69137;50.878;8.050;2023-06-10T09:11:43;98272.81;;;28.40;29.96
79671;BME280;69137;50.878;8.050;2023-06-10T09:14:08;98263.16;;;28.37;30.51
79671;BME280;69137;50.878;8.050;2023-06-10T09:16:34;98271.88;;;27.84;29.94
79671;BME280;69137;50.878;8.050;2023-06-10T09:18:59;98274.59;;;27.80;30.10
79671;BME280;69137;50.878;8.050;2023-06-10T09:21:25;98268.66;;;27.82;30.42
79671;BME280;69137;50.878;8.050;2023-06-10T09:23:51;98277.28;;;28.00;30.71
79671;BME280;69137;50.878;8.050;2023-06-10T09:26:17;98271.72;;;27.73;29.59
79671;BME280;69137;50.878;8.050;2023-06-10T09:28:44;98261.19;;;27.63;30.23
79671;BME280;69137;50.878;8.050;2023-06-10T09:31:12;98260.03;;;27.67;30.36
79671;BME280;69137;50.878;8.050;2023-06-10T09:33:39;98266.72;;;27.90;30.29
79671;BME280;69137;50.878;8.050;2023-06-10T09:36:05;98270.13;;;27.76;30.22
79671;BME280;69137;50.878;8.050;2023-06-10T09:38:33;98263.66;;;28.02;30.08
79671;BME280;69137;50.878;8.050;2023-06-10T09:40:59;98266.34;;;27.91;30.28
79671;BME280;69137;50.878;8.050;2023-06-10T09:43:45;98260.72;;;28.32;29.49
79671;BME280;69137;50.878;8.050;2023-06-10T09:46:18;98257.47;;;28.26;28.75
79671;BME280;69137;50.878;8.050;2023-06-10T09:48:45;98255.09;;;28.28;28.19
79671;BME280;69137;50.878;8.050;2023-06-10T09:51:12;98261.06;;;28.27;27.79
79671;BME280;69137;50.878;8.050;2023-06-10T09:53:38;98259.06;;;28.27;28.67
79671;BME280;69137;50.878;8.050;2023-06-10T09:56:04;98258.06;;;28.46;27.31
79671;BME280;69137;50.878;8.050;2023-06-10T09:58:35;98265.69;;;28.46;27.55
79671;BME280;69137;50.878;8.050;2023-06-10T10:01:10;98261.72;;;28.50;27.21
79671;BME280;69137;50.878;8.050;2023-06-10T10:03:51;98258.09;;;28.50;28.09
79671;BME280;69137;50.878;8.050;2023-06-10T10:06:18;98259.69;;;28.51;27.63
79671;BME280;69137;50.878;8.050;2023-06-10T10:08:49;98261.59;;;28.40;28.52
79671;BME280;69137;50.878;8.050;2023-06-10T10:11:16;98265.47;;;28.69;27.85
79671;BME280;69137;50.878;8.050;2023-06-10T10:13:45;98265.16;;;28.85;27.00
79671;BME280;69137;50.878;8.050;2023-06-10T10:16:14;98264.72;;;28.79;26.21
79671;BME280;69137;50.878;8.050;2023-06-10T10:18:49;98265.88;;;28.71;26.90
79671;BME280;69137;50.878;8.050;2023-06-10T10:21:16;98257.44;;;28.67;27.66
79671;BME280;69137;50.878;8.050;2023-06-10T10:23:53;98259.16;;;28.83;27.20
79671;BME280;69137;50.878;8.050;2023-06-10T10:26:20;98253.38;;;29.16;26.79
79671;BME280;69137;50.878;8.050;2023-06-10T10:31:50;98251.69;;;29.05;27.40
79671;BME280;69137;50.878;8.050;2023-06-10T10:34:21;98255.44;;;28.68;26.98
79671;BME280;69137;50.878;8.050;2023-06-10T10:36:47;98242.44;;;28.49;27.49
79671;BME280;69137;50.878;8.050;2023-06-10T10:39:14;98254.44;;;28.46;27.82
79671;BME280;69137;50.878;8.050;2023-06-10T10:41:41;98255.28;;;28.09;27.77
79671;BME280;69137;50.878;8.050;2023-06-10T10:44:07;98255.63;;;28.04;27.96
79671;BME280;69137;50.878;8.050;2023-06-10T10:46:53;98260.19;;;28.16;27.90
79671;BME280;69137;50.878;8.050;2023-06-10T10:49:20;98261.75;;;28.13;28.04
79671;BME280;69137;50.878;8.050;2023-06-10T10:51:58;98252.03;;;28.03;28.06
79671;BME280;69137;50.878;8.050;2023-06-10T10:54:34;98254.09;;;28.10;28.45
79671;BME280;69137;50.878;8.050;2023-06-10T10:57:11;98261.22;;;28.00;28.91
79671;BME280;69137;50.878;8.050;2023-06-10T11:00:02;98256.06;;;28.06;28.08
79671;BME280;69137;50.878;8.050;2023-06-10T11:02:43;98257.47;;;28.26;28.50
79671;BME280;69137;50.878;8.050;2023-06-10T11:05:10;98249.53;;;28.36;28.42
79671;BME280;69137;50.878;8.050;2023-06-10T11:07:37;98254.31;;;28.80;28.17
79671;BME280;69137;50.878;8.050;2023-06-10T11:10:08;98247.69;;;29.06;27.61
79671;BME280;69137;50.878;8.050;2023-06-10T11:15:24;98236.44;;;29.06;27.36
79671;BME280;69137;50.878;8.050;2023-06-10T11:18:19;98241.38;;;29.34;27.17
79671;BME280;69137;50.878;8.050;2023-06-10T11:23:30;98248.03;;;29.01;26.67
79671;BME280;69137;50.878;8.050;2023-06-10T11:26:19;98237.66;;;29.15;26.42
79671;BME280;69137;50.878;8.050;2023-06-10T11:31:24;98237.41;;;29.49;25.52
79671;BME280;69137;50.878;8.050;2023-06-10T11:33:55;98223.59;;;29.08;25.26
79671;BME280;69137;50.878;8.050;2023-06-10T11:36:24;98230.09;;;29.27;25.58
79671;BME280;69137;50.878;8.050;2023-06-10T11:38:55;98233.38;;;29.43;23.99
79671;BME280;69137;50.878;8.050;2023-06-10T11:41:21;98230.13;;;29.30;23.38
79671;BME280;69137;50.878;8.050;2023-06-10T11:43:47;98217.91;;;29.01;24.60
79671;BME280;69137;50.878;8.050;2023-06-10T11:46:13;98223.59;;;29.08;25.16
79671;BME280;69137;50.878;8.050;2023-06-10T11:48:39;98236.91;;;29.18;26.12
79671;BME280;69137;50.878;8.050;2023-06-10T11:51:13;98240.28;;;28.83;27.49
79671;BME280;69137;50.878;8.050;2023-06-10T11:53:38;98241.56;;;28.41;28.36
79671;BME280;69137;50.878;8.050;2023-06-10T11:56:04;98224.56;;;28.27;28.61
79671;BME280;69137;50.878;8.050;2023-06-10T11:58:29;98232.22;;;28.30;29.11
79671;BME280;69137;50.878;8.050;2023-06-10T12:00:55;98234.03;;;28.52;28.92
79671;BME280;69137;50.878;8.050;2023-06-10T12:03:26;98228.44;;;28.56;28.69
79671;BME280;69137;50.878;8.050;2023-06-10T12:05:59;98223.91;;;28.41;28.96
79671;BME280;69137;50.878;8.050;2023-06-10T12:08:26;98227.09;;;28.43;29.27
79671;BME280;69137;50.878;8.050;2023-06-10T12:10:53;98236.78;;;28.45;29.01
79671;BME280;69137;50.878;8.050;2023-06-10T12:13:18;98222.13;;;28.22;29.67
79671;BME280;69137;50.878;8.050;2023-06-10T12:15:44;98219.03;;;27.90;29.33
79671;BME280;69137;50.878;8.050;2023-06-10T12:20:43;98220.28;;;27.62;29.30
79671;BME280;69137;50.878;8.050;2023-06-10T12:23:09;98215.47;;;27.96;29.23
79671;BME280;69137;50.878;8.050;2023-06-10T12:25:35;98214.22;;;27.90;29.20
79671;BME280;69137;50.878;8.050;2023-06-10T12:28:02;98205.97;;;28.08;28.37
79671;BME280;69137;50.878;8.050;2023-06-10T12:30:28;98204.53;;;28.28;28.28
79671;BME280;69137;50.878;8.050;2023-06-10T12:32:54;98200.06;;;28.75;25.96
79671;BME280;69137;50.878;8.050;2023-06-10T12:35:21;98203.78;;;28.90;25.96
79671;BME280;69137;50.878;8.050;2023-06-10T12:38:05;98190.53;;;28.91;25.25
79671;BME280;69137;50.878;8.050;2023-06-10T12:40:36;98202.31;;;29.18;24.76
79671;BME280;69137;50.878;8.050;2023-06-10T12:43:02;98202.38;;;29.22;24.68
79671;BME280;69137;50.878;8.050;2023-06-10T12:48:05;98190.28;;;29.14;23.05
79671;BME280;69137;50.878;8.050;2023-06-10T12:50:35;98184.22;;;29.15;23.86
79671;BME280;69137;50.878;8.050;2023-06-10T12:53:03;98194.69;;;29.15;23.84
79671;BME280;69137;50.878;8.050;2023-06-10T12:55:28;98196.97;;;28.95;23.43
79671;BME280;69137;50.878;8.050;2023-06-10T12:57:54;98198.56;;;28.92;24.06
79671;BME280;69137;50.878;8.050;2023-06-10T13:00:20;98200.13;;;28.83;24.08
79671;BME280;69137;50.878;8.050;2023-06-10T13:02:48;98193.34;;;28.91;24.06
79671;BME280;69137;50.878;8.050;2023-06-10T13:05:13;98178.91;;;28.96;22.57
79671;BME280;69137;50.878;8.050;2023-06-10T13:07:39;98191.44;;;29.06;23.51
79671;BME280;69137;50.878;8.050;2023-06-10T13:10:05;98185.91;;;29.31;23.96
79671;BME280;69137;50.878;8.050;2023-06-10T13:12:30;98182.22;;;29.09;24.19
79671;BME280;69137;50.878;8.050;2023-06-10T13:14:56;98192.25;;;29.10;23.47
79671;BME280;69137;50.878;8.050;2023-06-10T13:17:21;98183.00;;;29.06;21.90
79671;BME280;69137;50.878;8.050;2023-06-10T13:19:47;98175.31;;;29.03;22.91